Terminal Aerodrome Forecast
Issued by NWS

Home | Current Version | Previous Version | Text Only | Print | Product List | Glossary On
Versions: 1 2 3 4 5 6 7 8 9 10 11 12 13 14 15 16 17 18 19 20 21 22 23 24 25
579
FTUS43 KDLH 252339
TAFHYR
TAF
KHYR 252339Z 2600/2624 22008G20KT P6SM VCSH SCT023 OVC035
      TEMPO 2600/2601 4SM -RA BR
     FM260800 25008G15KT P6SM -RA SCT007 OVC015
     FM261400 28013G23KT P6SM VCSH SCT015 OVC029=

USA.gov is the U.S. government's official web portal to all federal, state and local government web resources and services.